Terminal Aerodrome Forecast
Issued by NWS Atlanta, GA

Home | Current Version | Previous Version | Text Only | Print | Product List | Glossary On
Versions: 1 2 3 4 5 6 7 8 9 10 11 12 13 14 15 16 17 18
000
FTUS42 KFFC 120500 RRA
TAFMCN
TAF
KMCN 120543Z 1206/1306 11003KT P6SM SKC
     FM120900 10003KT 6SM BR SCT007
      TEMPO 1210/1213 3SM BR BKN007
     FM121500 08006KT P6SM BKN030
     FM121800 08007KT P6SM BKN050 PROB30 1219/1222 3SM TSRA BKN035CB
     FM122200 09007KT P6SM SCT060
     FM130300 12003KT P6SM FEW080=

USA.gov is the U.S. government's official web portal to all federal, state and local government web resources and services.